Last 24 Hours

Squaw-Red Dog 6200'

Hourly Data | America/Los_Angeles
as of 2/18/20 9:34 AM PST
Date & Time Temp (°F) RH (%) Dew Pt (°F) Wet Bulb (°F) Wind Dir (°) Wind Spd (mph) Wind Gust (mph) Latest Rain (In) New Snow (in) SnowDepth (in) Daily Min Temp (°F) Daily Max Temp (°F) Daily Rain (In)
2/18/20 - 0900 23.4 73 15.9 21.2 WSW | 254 0.7 2.1 0.00 0.1 89.0 18.2 23.9 0.00
2/18/20 - 0800 19.7 77 13.8 18.1 WSW | 246 0.6 2.2 0.00 0.1 89.1 18.2 23.9 0.00
2/18/20 - 0700 18.4 81 13.5 17.1 W | 260 0.3 1.9 0.00 0.1 89.1 18.2 23.9 0.00
2/18/20 - 0600 20.3 74 13.3 18.4 W | 279 0.8 2.5 0.00 0.1 89.0 20.1 23.9 0.00
2/18/20 - 0500 20.9 72 13.3 18.8 W | 261 0.5 2.5 0.00 0.1 89.0 20.4 23.9 0.00
2/18/20 - 0400 22.6 68 13.7 20.1 WNW | 296 0.8 3.2 0.00 0.1 89.1 21.7 23.9 0.00
2/18/20 - 0300 23.3 69 14.7 20.8 WNW | 284 0.7 2.9 0.00 0.2 89.0 22.7 23.9 0.00
2/18/20 - 0200 23.3 66 13.6 20.6 WSW | 255 0.2 1.5 0.00 0.1 89.0 22.9 23.9 0.00
2/18/20 - 0100 23.5 63 12.6 20.5 W | 269 0.3 1.6 0.00 0.1 89.2 23.0 23.9 0.00
2/18/20 - 0000 23.9 60 12.0 20.7 SW | 236 0.3 1.7 0.00 0.1 89.1 22.8 48.3 0.00
2/17/20 - 2300 25.0 55 11.0 21.2 WNW | 302 0.8 2.7 0.00 0.2 89.1 22.8 48.3 0.00
2/17/20 - 2200 25.0 60 13.1 21.7 WSW | 255 0.4 1.6 0.00 0.1 89.0 22.8 48.3 0.00
2/17/20 - 2100 26.7 52 11.4 22.5 W | 280 1.2 4.1 0.00 0.1 88.8 22.8 48.3 0.00
2/17/20 - 2000 27.7 47 10.3 23.0 W | 268 0.5 2.2 0.00 0.1 89.0 22.8 48.3 0.00
2/17/20 - 1900 30.2 47 12.6 25.0 WSW | 252 0.9 2.3 0.00 0.1 88.7 22.8 48.3 0.00
2/17/20 - 1800 33.9 34 8.4 26.7 WSW | 246 1.1 4.1 0.00 0.1 88.9 22.8 48.3 0.00
2/17/20 - 1700 38.7 27 7.8 29.6 WSW | 255 2.4 6.5 0.00 - 88.7 22.8 48.3 0.00
2/17/20 - 1600 47.0 19 6.9 34.3 SW | 215 3.2 10.4 0.00 - 88.7 22.8 48.3 0.00
2/17/20 - 1500 46.5 14 0.4 33.2 SSW | 208 4.8 11.4 0.00 - 88.6 22.8 48.3 0.00
2/17/20 - 1400 46.2 20 7.1 33.9 SSW | 213 3.9 11.7 0.00 - 88.5 22.8 47.2 0.00
2/17/20 - 1300 44.1 19 4.9 32.4 SSW | 201 5.1 12.2 0.00 - 88.6 22.8 44.1 0.00
2/17/20 - 1200 41.3 23 5.9 30.9 SSW | 196 6.5 11.8 0.00 - 88.2 22.8 41.6 0.00
2/17/20 - 1100 39.0 24 5.0 29.4 WSW | 244 3.2 11.0 0.00 0.2 88.7 22.8 39.5 0.00
2/17/20 - 1000 31.6 57 18.1 27.2 WSW | 253 1.6 3.8 0.00 0.2 89.3 22.8 32.0 0.00
2/17/20 - 0900 27.2 79 21.6 25.3 W | 276 1.1 2.4 0.00 0.1 88.9 22.8 32.0 0.00
Max 47.0 81 21.6 34.3 - 6.5 12.2 0.00 0.2 89.3 23.0 48.3 0.00
Avg 30.0 51 11.2 24.5 - 1.7 4.8 0.00 0.1 88.9 - - -
Min 18.4 14 0.4 17.1 - 0.2 1.5 0.00 0.1 88.2 18.2 23.9 0.00
Total - - - - - - - 0.00 - - - - -